createdAt,value
2018-12-13T00:00:06.811Z,8.63
2018-12-13T00:02:36.409Z,9.17
2018-12-13T00:05:05.168Z,9.07
2018-12-13T00:07:34.937Z,8.20
2018-12-13T00:10:03.955Z,7.40
2018-12-13T00:12:32.672Z,7.63
2018-12-13T00:15:01.750Z,9.00
2018-12-13T00:17:30.611Z,10.67
2018-12-13T00:19:59.265Z,9.20
2018-12-13T00:22:28.878Z,8.47
2018-12-13T00:24:57.497Z,10.53
2018-12-13T00:27:26.126Z,10.43
2018-12-13T00:29:54.792Z,8.47
2018-12-13T00:32:23.497Z,8.93
2018-12-13T00:34:52.236Z,11.27
2018-12-13T00:37:21.090Z,9.67
2018-12-13T00:39:49.863Z,11.70
2018-12-13T00:42:18.549Z,10.10
2018-12-13T00:44:48.075Z,10.00
2018-12-13T00:47:17.097Z,10.07
2018-12-13T00:49:46.099Z,9.00
2018-12-13T00:52:15.620Z,8.77
2018-12-13T00:54:44.572Z,8.43
2018-12-13T00:57:13.307Z,9.37
2018-12-13T00:59:42.312Z,9.23
2018-12-13T01:02:11.142Z,9.83
2018-12-13T01:04:41.608Z,8.60
2018-12-13T01:07:10.988Z,7.93
2018-12-13T01:09:40.632Z,8.93
2018-12-13T01:12:09.414Z,8.10
2018-12-13T01:14:39.134Z,9.03
2018-12-13T01:17:07.824Z,7.70
2018-12-13T01:19:36.521Z,8.47
2018-12-13T01:22:05.349Z,8.73
2018-12-13T01:24:33.994Z,8.43
2018-12-13T01:27:03.450Z,8.07
2018-12-13T01:29:32.211Z,10.53
2018-12-13T01:32:01.516Z,9.00
2018-12-13T01:34:30.237Z,8.83
2018-12-13T01:36:58.841Z,8.73
2018-12-13T01:39:27.530Z,9.83
2018-12-13T01:41:56.122Z,8.90
2018-12-13T01:44:24.813Z,8.47
2018-12-13T01:46:53.759Z,9.37
2018-12-13T01:49:22.539Z,9.37
2018-12-13T01:51:51.104Z,9.00
2018-12-13T01:54:19.693Z,8.87
2018-12-13T01:56:48.319Z,9.87
2018-12-13T01:59:16.848Z,8.50
2018-12-13T02:01:45.767Z,9.37
2018-12-13T02:04:14.369Z,10.27
2018-12-13T02:06:43.547Z,8.80
2018-12-13T02:09:12.091Z,8.80
2018-12-13T02:11:40.673Z,8.67
2018-12-13T02:14:09.271Z,10.23
2018-12-13T02:16:37.904Z,8.90
2018-12-13T02:19:06.466Z,9.63
2018-12-13T02:21:35.084Z,8.70
2018-12-13T02:24:03.670Z,9.80
2018-12-13T02:26:32.446Z,9.10
2018-12-13T02:29:01.025Z,9.57
2018-12-13T02:31:29.979Z,8.87
2018-12-13T02:33:58.763Z,9.20
2018-12-13T02:36:27.378Z,9.83
2018-12-13T02:38:55.926Z,9.40
2018-12-13T02:41:24.628Z,10.07
2018-12-13T02:43:53.340Z,9.07
2018-12-13T02:46:21.927Z,10.37
2018-12-13T02:48:56.973Z,9.17
2018-12-13T02:51:25.602Z,9.67
2018-12-13T02:53:54.282Z,9.47
2018-12-13T02:56:22.847Z,10.00
2018-12-13T02:58:51.669Z,10.97
2018-12-13T03:01:20.231Z,9.43
2018-12-13T03:03:49.755Z,10.87
2018-12-13T03:06:18.487Z,9.47
2018-12-13T03:08:47.128Z,10.33
2018-12-13T03:11:16.572Z,11.77
2018-12-13T03:13:45.268Z,11.27
2018-12-13T03:16:13.834Z,10.00
2018-12-13T03:18:42.396Z,10.47
2018-12-13T03:21:10.956Z,9.57
2018-12-13T03:23:39.501Z,10.73
2018-12-13T03:26:08.013Z,10.73
2018-12-13T03:28:36.595Z,8.73
2018-12-13T03:31:05.218Z,10.00
2018-12-13T03:33:33.835Z,9.03
2018-12-13T03:36:02.340Z,10.07
2018-12-13T03:38:30.859Z,9.97
2018-12-13T03:40:59.560Z,9.50
2018-12-13T03:43:28.058Z,11.27
2018-12-13T03:45:56.583Z,11.43
2018-12-13T03:48:25.137Z,10.57
2018-12-13T03:50:53.790Z,12.20
2018-12-13T03:53:22.364Z,11.03
2018-12-13T03:55:51.128Z,13.53
2018-12-13T03:58:19.786Z,10.70
2018-12-13T04:00:48.473Z,11.23
2018-12-13T04:03:17.061Z,10.33
2018-12-13T04:05:45.597Z,11.00
2018-12-13T04:08:14.308Z,10.60
2018-12-13T04:10:42.899Z,12.67
2018-12-13T04:13:11.591Z,11.57
2018-12-13T04:15:40.183Z,10.60
2018-12-13T04:18:08.848Z,10.27
2018-12-13T04:20:38.166Z,9.43
2018-12-13T04:23:06.898Z,10.87
2018-12-13T04:25:35.439Z,11.83
2018-12-13T04:28:04.129Z,11.20
2018-12-13T04:30:32.735Z,9.03
2018-12-13T04:33:01.482Z,9.37
2018-12-13T04:35:30.081Z,12.23
2018-12-13T04:37:58.697Z,10.20
2018-12-13T04:40:27.914Z,10.93
2018-12-13T04:42:56.704Z,13.83
2018-12-13T04:45:25.304Z,11.30
2018-12-13T04:47:53.987Z,9.70
2018-12-13T04:50:22.714Z,10.40
2018-12-13T04:52:51.270Z,11.77
2018-12-13T04:55:20.120Z,9.83
2018-12-13T04:57:48.730Z,10.93
2018-12-13T05:00:17.325Z,10.77
2018-12-13T05:02:45.870Z,9.40
2018-12-13T05:05:14.510Z,11.83
2018-12-13T05:07:43.079Z,10.47
2018-12-13T05:10:21.389Z,9.80
2018-12-13T05:12:49.965Z,11.43
2018-12-13T05:15:18.715Z,11.30
2018-12-13T05:17:47.866Z,10.90
2018-12-13T05:20:16.460Z,11.00
2018-12-13T05:22:45.017Z,10.80
2018-12-13T05:25:13.654Z,10.27
2018-12-13T05:27:42.180Z,11.90
2018-12-13T05:30:10.808Z,11.17
2018-12-13T05:32:39.331Z,11.33
2018-12-13T05:35:08.213Z,11.67
2018-12-13T05:37:37.027Z,10.50
2018-12-13T05:40:05.821Z,13.17
2018-12-13T05:42:34.543Z,12.13
2018-12-13T05:45:03.233Z,10.37
2018-12-13T05:47:31.886Z,13.27
2018-12-13T05:50:00.541Z,11.60
2018-12-13T05:52:29.303Z,12.87
2018-12-13T05:54:57.852Z,13.27
2018-12-13T05:57:26.497Z,11.13
2018-12-13T05:59:55.222Z,13.30
2018-12-13T06:02:24.066Z,11.77
2018-12-13T06:04:52.655Z,14.90
2018-12-13T06:07:21.355Z,12.23
2018-12-13T06:09:49.946Z,12.73
2018-12-13T06:12:18.630Z,13.40
2018-12-13T06:14:47.203Z,13.53
2018-12-13T06:17:15.835Z,12.80
2018-12-13T06:19:44.382Z,12.70
2018-12-13T06:22:13.132Z,12.60
2018-12-13T06:24:41.748Z,13.37
2018-12-13T06:27:10.419Z,16.13
2018-12-13T06:29:41.818Z,15.20
2018-12-13T06:32:09.547Z,14.23
2018-12-13T06:34:38.379Z,16.47
2018-12-13T06:37:07.056Z,16.60
2018-12-13T06:39:35.719Z,15.23
2018-12-13T06:42:04.541Z,16.07
2018-12-13T06:44:33.146Z,13.70
2018-12-13T06:47:01.912Z,15.83
2018-12-13T06:49:30.583Z,13.97
2018-12-13T06:51:59.203Z,14.50
2018-12-13T06:54:27.994Z,13.90
2018-12-13T06:56:56.559Z,13.40
2018-12-13T06:59:25.142Z,13.97
2018-12-13T07:01:54.122Z,13.80
2018-12-13T07:04:22.693Z,13.90
2018-12-13T07:06:51.497Z,12.37
2018-12-13T07:09:20.062Z,15.83
2018-12-13T07:11:48.984Z,15.50
2018-12-13T07:14:17.609Z,14.10
2018-12-13T07:16:46.537Z,16.63
2018-12-13T07:19:15.211Z,12.93
2018-12-13T07:21:43.816Z,13.90
2018-12-13T07:24:12.463Z,14.77
2018-12-13T07:26:41.296Z,14.10
2018-12-13T07:29:10.174Z,16.27
2018-12-13T07:31:38.824Z,12.80
2018-12-13T07:34:07.312Z,13.33
2018-12-13T07:36:36.860Z,13.97
2018-12-13T07:39:10.082Z,13.40
2018-12-13T07:41:39.801Z,14.10
2018-12-13T07:44:08.556Z,12.87
2018-12-13T07:46:37.388Z,17.87
2018-12-13T07:49:06.137Z,15.70
2018-12-13T07:51:34.808Z,13.53
2018-12-13T07:54:03.515Z,16.43
2018-12-13T07:56:32.261Z,12.97
2018-12-13T07:59:00.769Z,15.77
2018-12-13T08:01:29.596Z,16.23
2018-12-13T08:03:58.213Z,15.23
2018-12-13T08:06:26.902Z,14.53
2018-12-13T08:08:55.688Z,16.63
2018-12-13T08:11:24.382Z,17.90
2018-12-13T08:13:53.873Z,16.37
2018-12-13T08:16:22.486Z,15.87
2018-12-13T08:18:51.620Z,15.00
2018-12-13T08:21:20.316Z,13.97
2018-12-13T08:23:49.321Z,14.17
2018-12-13T08:26:18.095Z,13.77
2018-12-13T08:28:46.826Z,15.37
2018-12-13T08:31:16.175Z,12.93
2018-12-13T08:33:44.780Z,15.97
2018-12-13T08:36:14.295Z,14.97
2018-12-13T08:38:42.913Z,14.57
2018-12-13T08:41:11.540Z,13.93
2018-12-13T08:43:40.173Z,14.43
2018-12-13T08:46:08.771Z,16.60
2018-12-13T08:48:37.648Z,13.10
2018-12-13T08:51:06.364Z,11.70
2018-12-13T08:53:35.480Z,13.50
2018-12-13T08:56:05.371Z,12.30
2018-12-13T08:58:33.989Z,14.30
2018-12-13T09:03:37.941Z,15.53
2018-12-13T09:06:06.644Z,12.60
2018-12-13T09:08:35.480Z,15.17
2018-12-13T09:11:04.202Z,12.80
2018-12-13T09:13:32.952Z,12.73
2018-12-13T09:16:01.671Z,13.70
2018-12-13T09:18:30.542Z,12.97
2018-12-13T09:20:59.799Z,11.60
2018-12-13T09:23:28.506Z,14.23
2018-12-13T09:25:57.282Z,13.30
2018-12-13T09:28:26.036Z,13.20
2018-12-13T09:30:54.962Z,15.20
2018-12-13T09:33:23.846Z,13.57
2018-12-13T09:35:52.866Z,12.97
2018-12-13T09:38:21.641Z,12.17
2018-12-13T09:40:50.817Z,14.83
2018-12-13T09:43:21.507Z,12.50
2018-12-13T09:45:51.456Z,13.53
2018-12-13T09:48:21.543Z,15.20
2018-12-13T09:50:50.162Z,12.17
2018-12-13T09:53:19.918Z,11.90
2018-12-13T09:55:49.003Z,14.47
2018-12-13T09:58:18.215Z,15.13
2018-12-13T10:00:47.166Z,13.00
2018-12-13T10:03:15.822Z,12.67
2018-12-13T10:05:45.207Z,15.93
2018-12-13T10:08:14.000Z,10.63
2018-12-13T10:10:42.586Z,12.00
2018-12-13T10:13:11.477Z,14.07
2018-12-13T10:15:40.087Z,11.33
2018-12-13T10:18:09.246Z,11.87
2018-12-13T10:20:38.369Z,11.00
2018-12-13T10:23:07.196Z,10.73
2018-12-13T10:25:36.062Z,14.40
2018-12-13T10:28:05.055Z,10.20
2018-12-13T10:30:33.637Z,13.00
2018-12-13T10:33:02.221Z,14.53
2018-12-13T10:35:31.392Z,10.93
2018-12-13T10:38:00.394Z,11.13
2018-12-13T10:40:29.213Z,10.23
2018-12-13T10:42:57.867Z,16.90
2018-12-13T10:45:26.477Z,14.70
2018-12-13T10:47:55.127Z,10.60
2018-12-13T10:50:25.526Z,10.87
2018-12-13T10:52:54.176Z,11.93
2018-12-13T10:55:23.226Z,10.40
2018-12-13T10:57:51.831Z,11.90
2018-12-13T11:00:24.675Z,12.07
2018-12-13T11:03:08.819Z,10.80
2018-12-13T11:05:37.856Z,14.10
2018-12-13T11:08:06.503Z,14.33
2018-12-13T11:10:35.152Z,14.57
2018-12-13T11:13:03.751Z,12.10
2018-12-13T11:15:32.683Z,12.13
2018-12-13T11:18:03.634Z,11.93
2018-12-13T11:20:32.346Z,13.93
2018-12-13T11:23:00.922Z,15.07
2018-12-13T11:25:29.790Z,13.73
2018-12-13T11:28:18.859Z,14.57
2018-12-13T11:30:47.712Z,14.37
2018-12-13T11:33:16.565Z,13.77
2018-12-13T11:35:45.603Z,12.60
2018-12-13T11:38:14.488Z,13.70
2018-12-13T11:40:43.198Z,14.20
2018-12-13T11:43:11.867Z,14.30
2018-12-13T11:45:40.483Z,12.50
2018-12-13T11:48:09.111Z,14.53
2018-12-13T11:50:37.670Z,13.97
2018-12-13T11:53:06.327Z,11.97
2018-12-13T11:55:37.540Z,12.53
2018-12-13T11:58:10.670Z,13.57
2018-12-13T12:00:39.263Z,14.43
2018-12-13T12:03:08.258Z,12.73
2018-12-13T12:05:36.983Z,13.10
2018-12-13T12:08:05.873Z,12.77
2018-12-13T12:10:34.930Z,12.07
2018-12-13T12:13:04.083Z,12.43
2018-12-13T12:15:32.680Z,14.57
2018-12-13T12:18:01.687Z,12.77
2018-12-13T12:20:31.262Z,10.70
2018-12-13T12:22:59.942Z,12.10
2018-12-13T12:25:28.502Z,12.97
2018-12-13T12:27:57.296Z,12.10
2018-12-13T12:30:25.917Z,14.03
2018-12-13T12:32:54.789Z,12.23
2018-12-13T12:35:23.385Z,13.00
2018-12-13T12:37:52.030Z,14.30
2018-12-13T12:40:20.924Z,12.87
2018-12-13T12:42:49.463Z,13.13
2018-12-13T12:45:18.878Z,11.30
2018-12-13T12:47:47.503Z,14.23
2018-12-13T12:50:16.468Z,12.53
2018-12-13T12:52:45.106Z,12.97
2018-12-13T12:55:13.727Z,15.30
2018-12-13T12:57:42.261Z,14.60
2018-12-13T13:00:11.416Z,13.43
2018-12-13T13:02:40.446Z,12.97
2018-12-13T13:05:09.822Z,15.57
2018-12-13T13:07:40.057Z,14.60
2018-12-13T13:10:10.040Z,10.37
2018-12-13T13:12:40.143Z,11.37
2018-12-13T13:15:10.297Z,10.83
2018-12-13T13:17:38.938Z,12.10
2018-12-13T13:20:08.480Z,14.73
2018-12-13T13:22:38.710Z,11.20
2018-12-13T13:25:10.139Z,13.80
2018-12-13T13:27:39.281Z,12.17
2018-12-13T13:30:08.138Z,11.93
2018-12-13T13:32:38.403Z,11.47
2018-12-13T13:35:07.200Z,12.30
2018-12-13T13:37:37.306Z,11.33
2018-12-13T13:40:07.007Z,13.73
2018-12-13T13:42:36.385Z,11.53
2018-12-13T13:45:06.563Z,13.27
2018-12-13T13:47:36.016Z,11.37
2018-12-13T13:50:05.608Z,12.13
2018-12-13T13:52:34.282Z,11.63
2018-12-13T13:55:03.134Z,12.73
2018-12-13T13:57:31.867Z,10.53
2018-12-13T14:00:00.501Z,11.53
2018-12-13T14:02:29.198Z,10.50
2018-12-13T14:04:58.581Z,9.57
2018-12-13T14:07:27.296Z,12.53
2018-12-13T14:09:56.447Z,13.53
2018-12-13T14:12:25.984Z,11.13
2018-12-13T14:14:55.052Z,12.73
2018-12-13T14:17:24.714Z,12.87
2018-12-13T14:19:54.099Z,11.20
2018-12-13T14:22:22.880Z,11.60
2018-12-13T14:24:51.519Z,13.40
2018-12-13T14:27:20.151Z,11.53
2018-12-13T14:29:49.162Z,12.27
2018-12-13T14:32:18.557Z,11.17
2018-12-13T14:34:48.420Z,9.83
2018-12-13T14:37:17.213Z,10.87
2018-12-13T14:39:46.993Z,11.53
2018-12-13T14:42:17.194Z,12.00
2018-12-13T14:44:45.933Z,11.07
2018-12-13T14:47:14.634Z,14.17
2018-12-13T14:49:43.195Z,12.80
2018-12-13T14:52:11.825Z,11.13
2018-12-13T14:54:41.189Z,14.27
2018-12-13T14:57:09.836Z,11.37
2018-12-13T14:59:38.392Z,13.97
2018-12-13T15:02:07.179Z,13.23
2018-12-13T15:04:35.838Z,13.10
2018-12-13T15:07:04.423Z,11.60
2018-12-13T15:09:33.082Z,12.17
2018-12-13T15:12:01.959Z,15.97
2018-12-13T15:14:31.895Z,12.90
2018-12-13T15:17:00.564Z,14.73
2018-12-13T15:19:29.943Z,13.37
2018-12-13T15:22:03.607Z,12.60
2018-12-13T15:24:39.907Z,12.43
2018-12-13T15:27:08.500Z,12.43
2018-12-13T15:29:37.119Z,12.13
2018-12-13T15:32:05.790Z,12.20
2018-12-13T15:34:34.796Z,11.57
2018-12-13T15:37:03.546Z,11.67
2018-12-13T15:39:32.184Z,11.13
2018-12-13T15:42:00.787Z,11.90
2018-12-13T15:44:29.549Z,12.93
2018-12-13T15:46:58.147Z,12.37
2018-12-13T15:49:27.548Z,13.30
2018-12-13T15:51:56.365Z,9.97
2018-12-13T15:54:25.440Z,11.33
2018-12-13T15:56:54.554Z,12.37
2018-12-13T15:59:24.450Z,10.60
2018-12-13T16:01:53.356Z,10.67
2018-12-13T16:04:22.154Z,11.97
2018-12-13T16:06:51.462Z,13.30
2018-12-13T16:09:20.278Z,10.60
2018-12-13T16:11:49.802Z,9.87
2018-12-13T16:14:18.552Z,11.27
2018-12-13T16:16:47.822Z,12.40
2018-12-13T16:19:17.713Z,11.33
2018-12-13T16:21:46.473Z,13.33
2018-12-13T16:24:15.224Z,13.20
2018-12-13T16:26:43.958Z,11.10
2018-12-13T16:29:12.574Z,10.77
2018-12-13T16:31:41.193Z,12.47
2018-12-13T16:34:10.025Z,11.60
2018-12-13T16:36:39.024Z,10.80
2018-12-13T16:39:08.746Z,11.67
2018-12-13T16:41:37.662Z,11.83
2018-12-13T16:44:06.480Z,16.23
2018-12-13T16:46:35.094Z,12.40
2018-12-13T16:49:03.882Z,13.20
2018-12-13T16:51:32.431Z,11.50
2018-12-13T16:54:01.377Z,11.33
2018-12-13T16:56:30.334Z,14.40
2018-12-13T16:58:59.022Z,12.37
2018-12-13T17:01:27.563Z,11.80
2018-12-13T17:03:56.239Z,12.20
2018-12-13T17:06:25.031Z,11.90
2018-12-13T17:08:54.101Z,11.90
2018-12-13T17:11:22.680Z,12.63
2018-12-13T17:13:51.233Z,11.43
2018-12-13T17:16:19.763Z,13.03
2018-12-13T17:18:48.354Z,11.70
2018-12-13T17:21:17.037Z,12.00
2018-12-13T17:23:46.136Z,12.40
2018-12-13T17:26:14.711Z,14.53
2018-12-13T17:28:43.403Z,13.27
2018-12-13T17:31:11.918Z,12.43
2018-12-13T17:33:40.502Z,10.40
2018-12-13T17:36:09.231Z,15.37
2018-12-13T17:38:37.740Z,10.73
2018-12-13T17:41:06.414Z,10.90
2018-12-13T17:43:35.071Z,13.20
2018-12-13T17:46:03.791Z,12.87
2018-12-13T17:48:32.405Z,10.57
2018-12-13T17:51:01.036Z,12.17
2018-12-13T17:53:29.676Z,12.13
2018-12-13T17:55:58.394Z,12.27
2018-12-13T17:58:31.366Z,12.67
2018-12-13T18:01:00.111Z,13.20
2018-12-13T18:03:29.159Z,11.93
2018-12-13T18:05:57.886Z,12.10
2018-12-13T18:08:26.805Z,12.47
2018-12-13T18:10:55.363Z,12.67
2018-12-13T18:13:23.951Z,12.93
2018-12-13T18:15:52.565Z,11.27
2018-12-13T18:18:21.292Z,13.93
2018-12-13T18:20:49.908Z,13.63
2018-12-13T18:23:18.573Z,14.37
2018-12-13T18:25:47.149Z,13.83
2018-12-13T18:28:15.727Z,16.43
2018-12-13T18:30:44.318Z,14.10
2018-12-13T18:33:13.770Z,14.00
2018-12-13T18:35:42.302Z,13.83
2018-12-13T18:38:12.518Z,12.90
2018-12-13T18:40:41.243Z,13.03
2018-12-13T18:43:09.899Z,12.70
2018-12-13T18:45:38.679Z,12.40
2018-12-13T18:48:07.434Z,11.67
2018-12-13T18:50:36.260Z,12.00
2018-12-13T18:53:05.093Z,10.40
2018-12-13T18:55:33.784Z,13.50
2018-12-13T18:58:02.834Z,12.50
2018-12-13T19:00:31.477Z,12.60
2018-12-13T19:03:00.145Z,15.10
2018-12-13T19:05:28.668Z,13.37
2018-12-13T19:07:57.297Z,14.13
2018-12-13T19:10:26.728Z,12.73
2018-12-13T19:12:55.370Z,13.77
2018-12-13T19:15:24.070Z,15.43
2018-12-13T19:17:52.870Z,12.60
2018-12-13T19:20:21.574Z,12.00
2018-12-13T19:22:50.207Z,14.97
2018-12-13T19:25:19.030Z,13.30
2018-12-13T19:27:47.967Z,13.33
2018-12-13T19:30:16.540Z,13.90
2018-12-13T19:32:45.172Z,16.23
2018-12-13T19:35:19.250Z,15.77
2018-12-13T19:37:44.720Z,13.97
2018-12-13T19:40:13.438Z,13.77
2018-12-13T19:42:42.061Z,12.77
2018-12-13T19:45:10.983Z,15.50
2018-12-13T19:47:39.537Z,15.37
2018-12-13T19:50:09.672Z,14.60
2018-12-13T19:52:38.809Z,13.13
2018-12-13T19:55:07.851Z,16.23
2018-12-13T19:57:36.634Z,14.13
2018-12-13T20:00:07.165Z,13.27
2018-12-13T20:02:36.243Z,15.80
2018-12-13T20:05:05.358Z,14.90
2018-12-13T20:07:33.891Z,13.63
2018-12-13T20:10:02.506Z,13.77
2018-12-13T20:12:31.192Z,17.47
2018-12-13T20:14:59.814Z,13.37
2018-12-13T20:17:28.433Z,13.03
2018-12-13T20:19:57.501Z,13.73
2018-12-13T20:22:26.159Z,13.83
2018-12-13T20:24:55.049Z,11.20
2018-12-13T20:27:24.592Z,12.40
2018-12-13T20:29:53.238Z,13.13
2018-12-13T20:32:22.395Z,14.43
2018-12-13T20:34:51.533Z,15.57
2018-12-13T20:37:20.110Z,11.47
2018-12-13T20:39:49.349Z,15.30
2018-12-13T20:42:18.104Z,13.13
2018-12-13T20:44:46.828Z,15.97
2018-12-13T20:47:15.447Z,13.90
2018-12-13T20:49:45.061Z,14.40
2018-12-13T20:52:13.706Z,11.97
2018-12-13T20:54:42.386Z,12.93
2018-12-13T20:57:11.884Z,15.27
2018-12-13T20:59:40.523Z,12.83
2018-12-13T21:02:09.525Z,14.10
2018-12-13T21:04:38.153Z,14.23
2018-12-13T21:07:12.106Z,14.43
2018-12-13T21:09:40.899Z,13.55
2018-12-13T21:12:09.699Z,13.13
2018-12-13T21:14:38.749Z,14.43
2018-12-13T21:17:07.463Z,14.50
2018-12-13T21:19:37.222Z,13.00
2018-12-13T21:22:05.997Z,12.77
2018-12-13T21:24:34.804Z,14.40
2018-12-13T21:27:03.663Z,14.13
2018-12-13T21:29:32.286Z,12.43
2018-12-13T21:32:01.161Z,11.70
2018-12-13T21:34:29.798Z,14.50
2018-12-13T21:36:59.141Z,13.70
2018-12-13T21:39:27.845Z,11.60
2018-12-13T21:41:56.499Z,10.80
2018-12-13T21:44:27.234Z,12.30
2018-12-13T21:46:56.065Z,14.70
2018-12-13T21:49:25.430Z,11.13
2018-12-13T21:51:54.216Z,11.47
2018-12-13T21:54:23.040Z,8.93
2018-12-13T21:56:52.087Z,11.77
2018-12-13T21:59:21.104Z,10.07
2018-12-13T22:01:49.979Z,11.07
2018-12-13T22:04:18.590Z,10.83
2018-12-13T22:06:47.351Z,8.63
2018-12-13T22:09:16.534Z,10.07
2018-12-13T22:11:45.171Z,11.07
2018-12-13T22:14:14.044Z,10.73
2018-12-13T22:16:42.664Z,10.97
2018-12-13T22:19:11.215Z,10.67
2018-12-13T22:21:39.782Z,12.67
2018-12-13T22:24:08.372Z,12.17
2018-12-13T22:26:36.998Z,11.47
2018-12-13T22:29:05.878Z,12.20
2018-12-13T22:31:34.944Z,11.70
2018-12-13T22:34:06.330Z,10.60
2018-12-13T22:36:35.526Z,10.93
2018-12-13T22:39:06.179Z,10.13
2018-12-13T22:41:34.806Z,12.10
2018-12-13T22:44:03.415Z,12.70
2018-12-13T22:46:32.030Z,12.33
2018-12-13T22:49:00.577Z,13.47
2018-12-13T22:51:29.173Z,13.80
2018-12-13T22:53:57.836Z,10.40
2018-12-13T22:56:26.461Z,10.67
2018-12-13T22:58:55.012Z,11.23
2018-12-13T23:01:23.786Z,13.13
2018-12-13T23:03:52.479Z,10.50
2018-12-13T23:06:21.124Z,11.57
2018-12-13T23:08:49.750Z,10.30
2018-12-13T23:11:19.661Z,12.63
2018-12-13T23:13:48.414Z,11.27
2018-12-13T23:16:17.075Z,12.73
2018-12-13T23:18:45.663Z,12.93
2018-12-13T23:21:14.248Z,11.03
2018-12-13T23:23:42.945Z,12.63
2018-12-13T23:26:11.544Z,10.73
2018-12-13T23:28:40.062Z,13.10
2018-12-13T23:31:08.623Z,12.07
2018-12-13T23:33:37.191Z,11.77
2018-12-13T23:36:05.773Z,11.53
2018-12-13T23:38:34.355Z,10.17
2018-12-13T23:41:02.901Z,11.23
2018-12-13T23:43:31.511Z,12.10
2018-12-13T23:46:00.071Z,10.37
2018-12-13T23:48:28.804Z,11.47
2018-12-13T23:50:57.366Z,11.60
2018-12-13T23:53:26.198Z,12.27
2018-12-13T23:55:55.264Z,11.37
2018-12-13T23:58:24.589Z,11.53
